Latest Coastal Weather Observations for Cerberus

IDV60701

Issued at 5:55 pm EST Friday 19 September 2014 (issued every 10 minutes, with the page automatically refreshed every 10 minutes)

About coastal observations | Map of coastal stations | Coastal observations for VIC | Marine services | Other Formats
Station Details ID: 086361 Name: CERBERUS Lat: -38.36 Lon: 145.18 Height: 12.69 m
Data from the previous 72 hours. | See also: Recent months at Cerberus
Date/Time
EST
Temp

°C
Wind Pressure Rain
since 9am
mm
Weather Cloud Vis
km
Sea
Height
m
Swell
Dir
 
Speed
knots
Gust
knots
hPa Trend Height
m
Period
s
Dir
19/05:30pm 12.6 WSW 7 11 1024.1 - 0.0 - - - - - - -
19/05:00pm 12.6 SW 7 12 1023.9 - 0.0 - - - - - - -
19/04:30pm 12.8 SW 8 11 1023.9 - 0.0 - - - - - - -
19/04:00pm 12.7 SW 9 13 1023.7 - 0.0 - - - - - - -
19/03:30pm 13.7 SW 10 15 1023.5 - 0.0 - - - - - - -
19/03:00pm 13.5 SSW 11 16 1023.5 - 0.0 - - - - - - -
19/02:30pm 13.1 SSW 7 10 1023.7 - 0.0 - - - - - - -
19/02:00pm 13.6 SSW 10 14 1023.6 - 0.0 - - - - - - -
19/01:30pm 13.5 WSW 7 10 1023.8 - 0.0 - - - - - - -
19/01:00pm 13.1 WSW 9 14 1024.1 - 0.0 - - - - - - -
19/12:30pm 14.4 SW 10 16 1024.0 - 0.0 - - - - - - -
19/12:00pm 13.5 SW 10 16 1024.1 - 0.0 - - - - - - -
19/11:30am 13.6 SW 9 13 1024.3 - 0.0 - - - - - - -
19/11:00am 14.1 SSW 13 21 1024.3 - 0.0 - - - - - - -
19/10:30am 12.1 SW 8 14 1024.5 - 0.0 - - - - - - -
19/10:00am 13.5 SW 9 15 1024.5 - 0.0 - - - - - - -
19/09:30am 12.8 SW 9 14 1024.6 - 0.0 - - - - - - -
19/09:00am 12.1 WNW 4 7 1024.6 - 0.2 - - - - - - -
19/08:30am 11.6 W 6 8 1024.6 - 0.2 - - - - - - -
19/08:00am 10.6 WNW 4 6 1024.2 - 0.2 - - - - - - -
19/07:30am 9.9 NW 4 7 1024.1 - 0.2 - - - - - - -
19/07:00am 9.5 WNW 5 8 1023.9 - 0.2 - - - - - - -
19/06:30am 9.5 WNW 6 9 1023.6 - 0.2 - - - - - - -
19/06:00am 9.2 WNW 5 8 1023.4 - 0.2 - - - - - - -
19/05:30am 8.8 WNW 6 8 1023.3 - 0.2 - - - - - - -
19/05:00am 8.6 WNW 4 7 1023.2 - 0.2 - - - - - - -
19/04:30am 8.9 WNW 4 7 1023.1 - 0.2 - - - - - - -
19/04:00am 9.2 WNW 5 8 1023.1 - 0.0 - - - - - - -
19/03:30am 9.2 WNW 5 8 1023.1 - 0.0 - - - - - - -
19/03:00am 9.2 WNW 5 8 1023.1 - 0.0 - - - - - - -
19/02:30am 8.2 NNW 4 5 1023.4 - 0.0 - - - - - - -
19/02:00am 8.3 NW 3 4 1023.5 - 0.0 - - - - - - -
19/01:30am 9.1 W 5 7 1023.7 - 0.0 - - - - - - -
19/01:00am 8.2 NW 4 5 1024.0 - 0.0 - - - - - - -
19/12:30am 8.2 WNW 4 5 1024.1 - 0.0 - - - - - - -
19/12:00am 9.4 W 4 6 1024.2 - 0.0 - - - - - - -
 
Date/Time
EST
Temp

°C
Wind Pressure Rain
since 9am
mm
Weather Cloud Vis
km
Sea
Height
m
Swell
Dir
 
Speed
knots
Gust
knots
hPa Trend Height
m
Period
s
Dir
18/11:30pm 9.3 WNW 4 7 1024.3 - 0.0 - - - - - - -
18/11:00pm 9.3 WNW 4 5 1024.5 - 0.0 - - - - - - -
18/10:30pm 9.6 W 5 7 1024.5 - 0.0 - - - - - - -
18/10:00pm 9.5 W 5 6 1024.5 - 0.0 - - - - - - -
18/09:30pm 10.6 SW 7 12 1024.5 - 0.0 - - - - - - -
18/09:00pm 10.4 W 6 9 1024.4 - 0.0 - - - - - - -
18/08:30pm 9.6 W 3 5 1024.1 - 0.0 - - - - - - -
18/08:00pm 10.1 W 4 6 1024.1 - 0.0 - - - - - - -
18/07:30pm 10.8 SW 8 13 1023.9 - 0.0 - - - - - - -
18/07:00pm 10.8 SW 7 11 1023.8 - 0.0 - - - - - - -
18/06:30pm 11.1 SW 9 13 1023.7 - 0.0 - - - - - - -
18/06:00pm 11.3 SW 8 17 1023.4 - 0.0 - - - - - - -
18/05:30pm 11.4 SW 11 18 1023.1 - 0.0 - - - - - - -
18/05:00pm 12.0 SW 10 15 1022.9 - 0.0 - - - - - - -
18/04:30pm 11.9 SW 10 16 1022.6 - 0.0 - - - - - - -
18/04:00pm 11.8 SW 9 14 1022.5 - 0.0 - - - - - - -
18/03:30pm 11.5 WSW 10 17 1022.5 - 0.0 - - - - - - -
18/03:00pm 12.1 SSW 11 17 1022.4 - 0.0 - - - - - - -
18/02:30pm 11.3 WSW 11 18 1022.4 - 0.0 - - - - - - -
18/02:00pm 11.7 SW 13 21 1022.3 - 0.0 - - - - - - -
18/01:30pm 13.0 SW 12 16 1022.1 - 0.0 - - - - - - -
18/01:00pm 13.1 SW 12 17 1022.3 - 0.0 - - - - - - -
18/12:30pm 12.0 W 7 9 1022.4 - 0.0 - - - - - - -
18/12:00pm 13.4 SW 12 18 1022.4 - 0.0 - - - - - - -
18/11:30am 12.9 SW 10 15 1022.3 - 0.0 - - - - - - -
18/11:00am 12.7 SW 12 18 1022.3 - 0.0 - - - - - - -
18/10:30am 12.1 SW 11 17 1022.3 - 0.0 - - - - - - -
18/10:00am 12.5 SW 9 16 1022.2 - 0.0 - - - - - - -
18/09:30am 11.1 S 9 16 1022.1 - 0.0 - - - - - - -
18/09:00am 10.8 W 5 9 1021.9 - 5.6 Recent precip. - - - - - -
18/08:30am 9.5 W 4 7 1021.8 - 5.4 - - - - - - -
18/08:00am 8.9 WSW 11 18 1021.7 - 5.4 - - - - - - -
18/07:30am 9.9 WSW 5 7 1021.0 - 5.0 - - - - - - -
18/07:00am 9.2 WSW 7 10 1020.8 - 5.0 - - - - - - -
18/06:30am 8.9 WSW 5 8 1020.4 - 5.0 - - - - - - -
18/06:00am 9.3 SW 10 17 1020.1 - 5.0 Recent precip. - - - - - -
18/05:30am 9.1 WSW 8 13 1019.7 - 5.0 - - - - - - -
18/05:00am 8.7 WSW 10 22 1019.3 - 4.8 - - - - - - -
18/04:30am 8.9 W 7 10 1019.0 - 4.6 - - - - - - -
18/04:00am 8.4 W 6 9 1018.8 - 4.6 - - - - - - -
18/03:30am 8.8 W 9 15 1018.6 - 4.6 - - - - - - -
18/03:00am 8.7 WSW 7 13 1018.5 - 4.6 - - - - - - -
18/02:30am 8.1 W 7 12 1018.5 - 4.6 - - - - - - -
18/02:00am 8.2 W 5 8 1018.6 - 4.6 - - - - - - -
18/01:30am 8.4 WSW 10 16 1018.8 - 4.6 - - - - - - -
18/01:00am 9.9 SW 12 20 1018.6 - 4.4 - - - - - - -
18/12:30am 8.4 W 3 4 1018.7 - 4.4 - - - - - - -
18/12:00am 8.4 W 6 9 1018.6 - 4.4 Recent precip. - - - - - -
 
Date/Time
EST
Temp

°C
Wind Pressure Rain
since 9am
mm
Weather Cloud Vis
km
Sea
Height
m
Swell
Dir
 
Speed
knots
Gust
knots
hPa Trend Height
m
Period
s
Dir
17/11:30pm 8.1 W 5 10 1018.4 - 4.2 - - - - - - -
17/11:00pm 7.9 WNW 6 9 1018.3 - 4.2 - - - - - - -
17/10:30pm 8.1 W 9 14 1018.5 - 4.2 - - - - - - -
17/10:00pm 7.8 WNW 5 8 1018.4 - 4.2 - - - - - - -
17/09:30pm 8.3 W 8 13 1018.2 - 4.2 - - - - - - -
17/09:00pm 8.4 W 9 14 1017.8 - 4.2 - - - - - - -
17/08:30pm 8.7 W 14 21 1017.6 - 4.2 - - - - - - -
17/08:29pm 8.5 W 15 24 1017.5 - 4.2 - - - - - - -
17/08:00pm 7.8 WNW 4 6 1017.6 - 4.2 - - - - - - -
17/07:30pm 8.0 WSW 5 8 1017.5 - 4.2 - - - - - - -
17/07:00pm 8.0 W 7 10 1017.2 - 4.2 - - - - - - -
17/06:30pm 7.6 W 8 16 1016.9 - 4.0 - - - - - - -
17/06:00pm 9.4 W 8 11 1016.6 - 3.0 Recent precip. - - - - - -
17/05:30pm 9.5 SW 13 22 1016.1 - 3.0 - - - - - - -
17/05:00pm 10.8 WSW 10 15 1015.5 - 2.8 - - - - - - -
17/04:30pm 11.1 WSW 16 23 1015.2 - 2.8 - - - - - - -
17/04:00pm 11.2 WSW 17 36 1014.8 - 2.8 - - - - - - -
17/03:46pm 11.9 WSW 16 28 1014.5 - 2.8 - - - - - - -
17/03:30pm 11.1 WSW 16 25 1014.5 - 2.8 - - - - - - -
17/03:16pm 11.2 WSW 16 27 1014.1 - 2.8 - - - - - - -
17/03:00pm 10.4 WSW 15 23 1014.1 - 2.8 Recent precip. - - - - - -
17/02:53pm 9.4 WSW 16 27 1014.2 - 2.8 - - - - - - -
17/02:49pm 9.2 WSW 17 27 1014.2 - 2.8 - - - - - - -
17/02:30pm 9.7 W 11 17 1014.1 - 2.6 - - - - - - -
17/02:00pm 9.1 WSW 15 23 1014.0 - 2.4 - - - - - - -
17/01:31pm 11.3 WSW 15 25 1013.7 - 1.6 - - - - - - -
17/01:30pm 11.4 WSW 16 25 1013.7 - 1.6 - - - - - - -
17/01:02pm 13.4 WSW 17 31 1012.9 - 1.6 - - - - - - -
17/01:00pm 13.5 WSW 17 24 1012.9 - 1.6 - - - - - - -
17/12:34pm 13.4 W 17 28 1012.7 - 1.6 - - - - - - -
17/12:30pm 13.4 W 16 26 1012.7 - 1.6 - - - - - - -
17/12:09pm 12.7 W 16 29 1012.7 - 1.6 - - - - - - -
17/12:00pm 12.5 WSW 16 25 1012.6 - 1.6 - - - - - - -
17/11:30am 10.7 W 14 23 1012.9 - 1.6 - - - - - - -
17/11:00am 8.7 WSW 17 30 1013.0 - 1.6 - - - - - - -
17/10:55am 9.3 WSW 15 30 1012.9 - 0.6 - - - - - - -
17/10:53am 12.5 W 13 28 1012.9 - 0.0 - - - - - - -
17/10:30am 13.3 W 15 18 1012.7 - 0.0 - - - - - - -
17/10:00am 13.1 WNW 15 21 1012.6 - 0.0 - - - - - - -
17/09:30am 12.5 WNW 14 19 1012.5 - 0.0 - - - - - - -
17/09:00am 11.7 WNW 14 21 1012.4 - 0.2 - - - - - - -
17/08:30am 11.5 WNW 12 20 1012.5 - 0.2 - - - - - - -
17/08:00am 11.5 WNW 10 16 1012.4 - 0.2 - - - - - - -
17/07:30am 11.2 WNW 8 13 1012.1 - 0.2 - - - - - - -
17/07:00am 10.4 WNW 7 11 1011.9 - 0.2 - - - - - - -
17/06:30am 10.2 WNW 5 9 1011.9 - 0.2 - - - - - - -
17/06:00am 10.4 WNW 8 14 1012.0 - 0.2 - - - - - - -
17/05:30am 10.4 WNW 10 16 1011.9 - 0.2 - - - - - - -
17/05:00am 10.5 WNW 9 16 1011.7 - 0.2 - - - - - - -
17/04:30am 9.9 WNW 7 12 1011.6 - 0.2 - - - - - - -
17/04:00am 9.9 NW 7 11 1011.5 - 0.2 - - - - - - -
17/03:30am 10.1 NW 6 10 1011.6 - 0.2 - - - - - - -
17/03:00am 10.0 NW 8 11 1011.8 - 0.2 - - - - - - -
17/02:30am 9.9 NW 7 10 1011.9 - 0.2 - - - - - - -
17/02:00am 9.7 NW 6 9 1012.0 - 0.2 - - - - - - -
17/01:30am 10.1 NW 6 9 1012.2 - 0.2 - - - - - - -
17/01:00am 10.0 NW 5 7 1012.5 - 0.2 - - - - - - -
17/12:30am 9.2 NNW 3 6 1012.7 - 0.2 - - - - - - -
17/12:00am 9.1 WNW 1 2 1012.6 - 0.2 - - - - - - -
 
Date/Time
EST
Temp

°C
Wind Pressure Rain
since 9am
mm
Weather Cloud Vis
km
Sea
Height
m
Swell
Dir
 
Speed
knots
Gust
knots
hPa Trend Height
m
Period
s
Dir
16/11:30pm 9.2 WNW 2 3 1012.6 - 0.2 - - - - - - -
16/11:00pm 8.9 WNW 3 4 1013.0 - 0.2 - - - - - - -
16/10:30pm 9.7 W 4 5 1013.0 - 0.2 - - - - - - -
16/10:00pm 10.1 W 4 5 1013.1 - 0.2 - - - - - - -
16/09:30pm 10.3 WSW 5 6 1012.9 - 0.2 - - - - - - -
16/09:00pm 11.2 W 6 9 1012.9 - 0.2 - - - - - - -
16/08:30pm 11.6 WSW 5 8 1012.9 - 0.2 - - - - - - -
16/08:00pm 11.6 WSW 10 13 1012.7 - 0.2 - - - - - - -
16/07:30pm 11.6 WSW 7 14 1012.4 - 0.2 - - - - - - -
16/07:00pm 11.7 WSW 9 18 1012.0 - 0.0 - - - - - - -
16/06:30pm 12.6 WSW 12 20 1011.8 - 0.0 - - - - - - -
16/06:00pm 12.6 WSW 12 17 1011.3 - 0.0 - - - - - - -

Other Formats:

Comma delimited format used in spreadsheet applications
http://www.bom.gov.au/fwo/IDV60701/IDV60701.94898.axf

JavaScript Object Notation format (JSON) in row-major order
http://www.bom.gov.au/fwo/IDV60701/IDV60701.94898.json